sensor_id;sensor_type;location;lat;lon;timestamp;temperature;humidity
12967;DHT22;6548;49.996;8.238;2022-08-21T00:49:13;17.30;99.90
12967;DHT22;6548;49.996;8.238;2022-08-21T00:51:50;17.30;99.90
12967;DHT22;6548;49.996;8.238;2022-08-21T00:54:18;17.30;99.90
12967;DHT22;6548;49.996;8.238;2022-08-21T00:56:49;17.30;99.90
12967;DHT22;6548;49.996;8.238;2022-08-21T00:59:16;18.20;99.90
12967;DHT22;6548;49.996;8.238;2022-08-21T01:01:43;17.30;99.90
12967;DHT22;6548;49.996;8.238;2022-08-21T01:04:08;17.30;99.90
12967;DHT22;6548;49.996;8.238;2022-08-21T01:06:34;17.20;99.90
12967;DHT22;6548;49.996;8.238;2022-08-21T01:09:00;17.10;99.90
12967;DHT22;6548;49.996;8.238;2022-08-21T01:11:26;17.10;99.90
12967;DHT22;6548;49.996;8.238;2022-08-21T01:13:51;17.10;99.90
12967;DHT22;6548;49.996;8.238;2022-08-21T01:16:19;17.10;99.90
12967;DHT22;6548;49.996;8.238;2022-08-21T01:18:46;17.00;99.90
12967;DHT22;6548;49.996;8.238;2022-08-21T01:21:20;17.00;99.90
12967;DHT22;6548;49.996;8.238;2022-08-21T01:23:49;16.90;99.90
12967;DHT22;6548;49.996;8.238;2022-08-21T01:26:17;16.90;99.90
12967;DHT22;6548;49.996;8.238;2022-08-21T01:28:52;16.90;99.90
12967;DHT22;6548;49.996;8.238;2022-08-21T01:31:23;16.90;99.90
12967;DHT22;6548;49.996;8.238;2022-08-21T01:33:48;16.90;99.90
12967;DHT22;6548;49.996;8.238;2022-08-21T01:36:14;16.80;99.90
12967;DHT22;6548;49.996;8.238;2022-08-21T01:38:40;16.80;99.90
12967;DHT22;6548;49.996;8.238;2022-08-21T01:41:05;16.70;99.90
12967;DHT22;6548;49.996;8.238;2022-08-21T01:43:31;16.70;99.90
12967;DHT22;6548;49.996;8.238;2022-08-21T01:45:56;16.60;99.90
12967;DHT22;6548;49.996;8.238;2022-08-21T01:48:22;16.70;99.90
12967;DHT22;6548;49.996;8.238;2022-08-21T01:50:47;16.50;99.90
12967;DHT22;6548;49.996;8.238;2022-08-21T01:53:13;17.10;99.90
12967;DHT22;6548;49.996;8.238;2022-08-21T01:55:41;16.50;99.90
12967;DHT22;6548;49.996;8.238;2022-08-21T01:58:06;16.40;99.90
12967;DHT22;6548;49.996;8.238;2022-08-21T02:00:32;16.40;99.90
12967;DHT22;6548;49.996;8.238;2022-08-21T02:02:58;16.40;99.90
12967;DHT22;6548;49.996;8.238;2022-08-21T02:05:23;16.40;99.90
12967;DHT22;6548;49.996;8.238;2022-08-21T02:07:51;16.40;99.90
12967;DHT22;6548;49.996;8.238;2022-08-21T02:10:23;16.30;99.90
12967;DHT22;6548;49.996;8.238;2022-08-21T02:12:49;16.30;99.90
12967;DHT22;6548;49.996;8.238;2022-08-21T02:15:15;16.30;99.90
12967;DHT22;6548;49.996;8.238;2022-08-21T02:17:51;16.30;99.90
12967;DHT22;6548;49.996;8.238;2022-08-21T02:22:54;16.40;99.90
12967;DHT22;6548;49.996;8.238;2022-08-21T02:25:21;16.50;99.90
12967;DHT22;6548;49.996;8.238;2022-08-21T02:27:48;16.40;99.90
12967;DHT22;6548;49.996;8.238;2022-08-21T02:30:17;16.40;99.90
12967;DHT22;6548;49.996;8.238;2022-08-21T02:32:42;16.50;99.90
12967;DHT22;6548;49.996;8.238;2022-08-21T02:35:09;16.40;99.90
12967;DHT22;6548;49.996;8.238;2022-08-21T02:37:53;16.40;99.90
12967;DHT22;6548;49.996;8.238;2022-08-21T02:40:21;16.30;99.90
12967;DHT22;6548;49.996;8.238;2022-08-21T02:42:47;16.30;99.90
12967;DHT22;6548;49.996;8.238;2022-08-21T02:45:14;16.30;99.90
12967;DHT22;6548;49.996;8.238;2022-08-21T02:47:40;16.30;99.90
12967;DHT22;6548;49.996;8.238;2022-08-21T02:50:11;16.30;99.90
12967;DHT22;6548;49.996;8.238;2022-08-21T02:52:37;16.20;99.90
12967;DHT22;6548;49.996;8.238;2022-08-21T02:55:03;16.20;99.90
12967;DHT22;6548;49.996;8.238;2022-08-21T02:57:28;16.10;99.90
12967;DHT22;6548;49.996;8.238;2022-08-21T02:59:54;16.10;99.90
12967;DHT22;6548;49.996;8.238;2022-08-21T03:02:19;16.00;99.90
12967;DHT22;6548;49.996;8.238;2022-08-21T03:04:47;16.00;99.90
12967;DHT22;6548;49.996;8.238;2022-08-21T03:07:12;15.90;99.90
12967;DHT22;6548;49.996;8.238;2022-08-21T03:09:38;15.90;99.90
12967;DHT22;6548;49.996;8.238;2022-08-21T03:12:04;15.90;99.90
12967;DHT22;6548;49.996;8.238;2022-08-21T03:14:29;15.90;99.90
12967;DHT22;6548;49.996;8.238;2022-08-21T03:16:55;15.80;99.90
12967;DHT22;6548;49.996;8.238;2022-08-21T03:19:20;15.90;99.90
12967;DHT22;6548;49.996;8.238;2022-08-21T03:21:46;15.90;99.90
12967;DHT22;6548;49.996;8.238;2022-08-21T03:24:12;15.80;99.90
12967;DHT22;6548;49.996;8.238;2022-08-21T03:26:37;15.90;99.90
12967;DHT22;6548;49.996;8.238;2022-08-21T03:29:03;15.90;99.90
12967;DHT22;6548;49.996;8.238;2022-08-21T03:31:28;15.90;99.90
12967;DHT22;6548;49.996;8.238;2022-08-21T03:33:57;16.00;99.90
12967;DHT22;6548;49.996;8.238;2022-08-21T03:36:23;15.70;99.90
12967;DHT22;6548;49.996;8.238;2022-08-21T03:38:48;15.80;99.90
12967;DHT22;6548;49.996;8.238;2022-08-21T03:41:14;15.80;99.90
12967;DHT22;6548;49.996;8.238;2022-08-21T03:43:39;15.80;99.90
12967;DHT22;6548;49.996;8.238;2022-08-21T03:46:06;16.50;99.90
12967;DHT22;6548;49.996;8.238;2022-08-21T03:48:33;15.70;99.90
12967;DHT22;6548;49.996;8.238;2022-08-21T03:50:59;15.70;99.90
12967;DHT22;6548;49.996;8.238;2022-08-21T03:53:25;15.70;99.90
12967;DHT22;6548;49.996;8.238;2022-08-21T03:55:51;15.70;99.90
12967;DHT22;6548;49.996;8.238;2022-08-21T03:58:21;15.70;99.90
12967;DHT22;6548;49.996;8.238;2022-08-21T04:00:48;15.70;99.90
12967;DHT22;6548;49.996;8.238;2022-08-21T04:03:15;15.70;99.90
12967;DHT22;6548;49.996;8.238;2022-08-21T04:05:41;15.60;99.90
12967;DHT22;6548;49.996;8.238;2022-08-21T04:08:07;15.60;99.90
12967;DHT22;6548;49.996;8.238;2022-08-21T04:10:35;15.60;99.90
12967;DHT22;6548;49.996;8.238;2022-08-21T04:13:02;15.60;99.90
12967;DHT22;6548;49.996;8.238;2022-08-21T04:15:27;15.60;99.90
12967;DHT22;6548;49.996;8.238;2022-08-21T04:17:54;15.60;99.90
12967;DHT22;6548;49.996;8.238;2022-08-21T04:20:20;15.60;99.90
12967;DHT22;6548;49.996;8.238;2022-08-21T04:22:47;15.70;99.90
12967;DHT22;6548;49.996;8.238;2022-08-21T04:25:14;15.60;99.90
12967;DHT22;6548;49.996;8.238;2022-08-21T04:27:40;15.50;99.90
12967;DHT22;6548;49.996;8.238;2022-08-21T04:30:07;15.50;99.90
12967;DHT22;6548;49.996;8.238;2022-08-21T04:32:37;15.50;99.90
12967;DHT22;6548;49.996;8.238;2022-08-21T04:35:09;15.50;99.90
12967;DHT22;6548;49.996;8.238;2022-08-21T04:37:35;15.50;99.90
12967;DHT22;6548;49.996;8.238;2022-08-21T04:40:01;15.50;99.90
12967;DHT22;6548;49.996;8.238;2022-08-21T04:42:27;15.40;99.90
12967;DHT22;6548;49.996;8.238;2022-08-21T04:44:53;15.40;99.90
12967;DHT22;6548;49.996;8.238;2022-08-21T04:47:20;15.40;99.90
12967;DHT22;6548;49.996;8.238;2022-08-21T04:49:46;15.40;99.90
12967;DHT22;6548;49.996;8.238;2022-08-21T04:52:15;15.50;99.90
12967;DHT22;6548;49.996;8.238;2022-08-21T04:54:43;15.60;99.90
12967;DHT22;6548;49.996;8.238;2022-08-21T04:57:10;15.60;99.90
12967;DHT22;6548;49.996;8.238;2022-08-21T04:59:39;15.60;99.90
12967;DHT22;6548;49.996;8.238;2022-08-21T05:02:07;15.70;99.90
12967;DHT22;6548;49.996;8.238;2022-08-21T05:04:40;15.70;99.90
12967;DHT22;6548;49.996;8.238;2022-08-21T05:07:12;15.80;99.90
12967;DHT22;6548;49.996;8.238;2022-08-21T05:09:40;15.80;99.90
12967;DHT22;6548;49.996;8.238;2022-08-21T05:12:06;15.80;99.90
12967;DHT22;6548;49.996;8.238;2022-08-21T05:14:32;15.80;99.90
12967;DHT22;6548;49.996;8.238;2022-08-21T05:16:58;15.90;99.90
12967;DHT22;6548;49.996;8.238;2022-08-21T05:19:24;15.90;99.90
12967;DHT22;6548;49.996;8.238;2022-08-21T05:21:50;16.00;99.90
12967;DHT22;6548;49.996;8.238;2022-08-21T05:24:16;16.00;99.90
12967;DHT22;6548;49.996;8.238;2022-08-21T05:26:41;16.10;99.90
12967;DHT22;6548;49.996;8.238;2022-08-21T05:29:07;16.20;99.90
12967;DHT22;6548;49.996;8.238;2022-08-21T05:31:33;16.30;99.90
12967;DHT22;6548;49.996;8.238;2022-08-21T05:33:58;16.30;99.90
12967;DHT22;6548;49.996;8.238;2022-08-21T05:36:24;16.30;99.90
12967;DHT22;6548;49.996;8.238;2022-08-21T05:38:50;16.40;99.90
12967;DHT22;6548;49.996;8.238;2022-08-21T05:41:16;16.40;99.90
12967;DHT22;6548;49.996;8.238;2022-08-21T05:43:41;16.50;99.90
12967;DHT22;6548;49.996;8.238;2022-08-21T05:46:08;16.60;99.90
12967;DHT22;6548;49.996;8.238;2022-08-21T05:48:35;16.60;99.90
12967;DHT22;6548;49.996;8.238;2022-08-21T05:51:10;16.70;99.90
12967;DHT22;6548;49.996;8.238;2022-08-21T05:53:36;16.70;99.90
12967;DHT22;6548;49.996;8.238;2022-08-21T05:56:03;16.80;99.90
12967;DHT22;6548;49.996;8.238;2022-08-21T05:58:30;16.90;99.90
12967;DHT22;6548;49.996;8.238;2022-08-21T06:00:56;17.50;99.90
12967;DHT22;6548;49.996;8.238;2022-08-21T06:03:26;17.00;99.90
12967;DHT22;6548;49.996;8.238;2022-08-21T06:05:52;17.60;99.90
12967;DHT22;6548;49.996;8.238;2022-08-21T06:08:19;17.20;99.90
12967;DHT22;6548;49.996;8.238;2022-08-21T06:10:47;17.40;99.90
12967;DHT22;6548;49.996;8.238;2022-08-21T06:13:14;17.70;99.90
12967;DHT22;6548;49.996;8.238;2022-08-21T06:15:40;18.00;99.90
12967;DHT22;6548;49.996;8.238;2022-08-21T06:18:06;18.50;99.90
12967;DHT22;6548;49.996;8.238;2022-08-21T06:20:32;19.20;99.90
12967;DHT22;6548;49.996;8.238;2022-08-21T06:22:58;19.90;99.90
12967;DHT22;6548;49.996;8.238;2022-08-21T06:25:23;20.50;99.90
12967;DHT22;6548;49.996;8.238;2022-08-21T06:27:49;21.20;99.90
12967;DHT22;6548;49.996;8.238;2022-08-21T06:30:15;21.70;99.90
12967;DHT22;6548;49.996;8.238;2022-08-21T06:32:41;22.30;99.90
12967;DHT22;6548;49.996;8.238;2022-08-21T06:35:07;22.80;99.90
12967;DHT22;6548;49.996;8.238;2022-08-21T06:37:33;23.00;99.90
12967;DHT22;6548;49.996;8.238;2022-08-21T06:39:58;23.20;99.90
12967;DHT22;6548;49.996;8.238;2022-08-21T06:42:42;23.70;99.90
12967;DHT22;6548;49.996;8.238;2022-08-21T06:45:15;22.70;99.90
12967;DHT22;6548;49.996;8.238;2022-08-21T06:47:51;24.10;99.90
12967;DHT22;6548;49.996;8.238;2022-08-21T06:50:22;23.80;99.90
12967;DHT22;6548;49.996;8.238;2022-08-21T06:52:47;24.10;99.90
12967;DHT22;6548;49.996;8.238;2022-08-21T06:55:13;24.40;99.90
12967;DHT22;6548;49.996;8.238;2022-08-21T06:57:38;24.60;99.90
12967;DHT22;6548;49.996;8.238;2022-08-21T07:00:05;24.90;99.90
12967;DHT22;6548;49.996;8.238;2022-08-21T07:02:32;25.10;99.90
12967;DHT22;6548;49.996;8.238;2022-08-21T07:04:59;25.30;99.90
12967;DHT22;6548;49.996;8.238;2022-08-21T07:07:24;25.60;99.90
12967;DHT22;6548;49.996;8.238;2022-08-21T07:09:50;25.80;99.90
12967;DHT22;6548;49.996;8.238;2022-08-21T07:12:15;26.10;99.90
12967;DHT22;6548;49.996;8.238;2022-08-21T07:14:41;26.40;99.90
12967;DHT22;6548;49.996;8.238;2022-08-21T07:17:07;25.80;99.90
12967;DHT22;6548;49.996;8.238;2022-08-21T07:19:32;26.10;99.90
12967;DHT22;6548;49.996;8.238;2022-08-21T07:22:00;25.60;99.90
12967;DHT22;6548;49.996;8.238;2022-08-21T07:24:26;25.50;99.90
12967;DHT22;6548;49.996;8.238;2022-08-21T07:26:51;25.90;99.90
12967;DHT22;6548;49.996;8.238;2022-08-21T07:29:17;25.30;99.90
12967;DHT22;6548;49.996;8.238;2022-08-21T07:31:44;25.20;99.90
12967;DHT22;6548;49.996;8.238;2022-08-21T07:34:09;25.80;99.90
12967;DHT22;6548;49.996;8.238;2022-08-21T07:36:35;26.30;99.90
12967;DHT22;6548;49.996;8.238;2022-08-21T07:39:01;26.70;99.90
12967;DHT22;6548;49.996;8.238;2022-08-21T07:41:28;26.70;99.90
12967;DHT22;6548;49.996;8.238;2022-08-21T07:43:55;24.40;99.90
12967;DHT22;6548;49.996;8.238;2022-08-21T07:46:22;24.20;99.90
12967;DHT22;6548;49.996;8.238;2022-08-21T07:48:48;24.20;99.90
12967;DHT22;6548;49.996;8.238;2022-08-21T07:51:15;23.90;99.90
12967;DHT22;6548;49.996;8.238;2022-08-21T07:53:42;23.80;99.90
12967;DHT22;6548;49.996;8.238;2022-08-21T07:56:08;24.90;99.90
12967;DHT22;6548;49.996;8.238;2022-08-21T07:58:34;24.40;99.90
12967;DHT22;6548;49.996;8.238;2022-08-21T08:00:59;24.30;99.90
12967;DHT22;6548;49.996;8.238;2022-08-21T08:03:25;25.20;99.90
12967;DHT22;6548;49.996;8.238;2022-08-21T08:05:51;25.30;99.90
12967;DHT22;6548;49.996;8.238;2022-08-21T08:08:19;25.00;99.90
12967;DHT22;6548;49.996;8.238;2022-08-21T08:10:45;24.40;99.90
12967;DHT22;6548;49.996;8.238;2022-08-21T08:13:11;25.10;99.90
12967;DHT22;6548;49.996;8.238;2022-08-21T08:15:37;24.70;99.90
12967;DHT22;6548;49.996;8.238;2022-08-21T08:18:02;24.70;99.90
12967;DHT22;6548;49.996;8.238;2022-08-21T08:20:28;25.80;99.90
12967;DHT22;6548;49.996;8.238;2022-08-21T08:22:54;26.50;99.90
12967;DHT22;6548;49.996;8.238;2022-08-21T08:25:21;26.90;99.90
12967;DHT22;6548;49.996;8.238;2022-08-21T08:27:48;26.70;99.90
12967;DHT22;6548;49.996;8.238;2022-08-21T08:30:16;27.60;99.90
12967;DHT22;6548;49.996;8.238;2022-08-21T08:32:42;27.50;99.90
12967;DHT22;6548;49.996;8.238;2022-08-21T08:35:08;25.30;99.90
12967;DHT22;6548;49.996;8.238;2022-08-21T08:37:34;25.70;99.90
12967;DHT22;6548;49.996;8.238;2022-08-21T08:40:03;26.50;99.90
12967;DHT22;6548;49.996;8.238;2022-08-21T08:42:32;28.10;99.90
12967;DHT22;6548;49.996;8.238;2022-08-21T08:45:05;29.00;99.90
12967;DHT22;6548;49.996;8.238;2022-08-21T08:47:36;28.20;99.90
12967;DHT22;6548;49.996;8.238;2022-08-21T08:50:07;27.80;99.90
12967;DHT22;6548;49.996;8.238;2022-08-21T08:52:37;28.00;99.90
12967;DHT22;6548;49.996;8.238;2022-08-21T08:57:38;27.50;99.90
12967;DHT22;6548;49.996;8.238;2022-08-21T09:00:08;27.40;99.90
12967;DHT22;6548;49.996;8.238;2022-08-21T09:02:39;26.70;99.90
12967;DHT22;6548;49.996;8.238;2022-08-21T09:05:06;26.80;99.90
12967;DHT22;6548;49.996;8.238;2022-08-21T09:10:23;28.10;99.90
12967;DHT22;6548;49.996;8.238;2022-08-21T09:24:00;31.30;99.90
12967;DHT22;6548;49.996;8.238;2022-08-21T09:26:31;31.50;99.90
12967;DHT22;6548;49.996;8.238;2022-08-21T09:28:59;31.70;99.90
12967;DHT22;6548;49.996;8.238;2022-08-21T09:31:30;30.30;99.90
12967;DHT22;6548;49.996;8.238;2022-08-21T09:34:05;29.50;99.90
12967;DHT22;6548;49.996;8.238;2022-08-21T09:36:45;29.30;99.90
12967;DHT22;6548;49.996;8.238;2022-08-21T09:39:22;29.30;99.90
12967;DHT22;6548;49.996;8.238;2022-08-21T09:41:58;29.00;99.90
12967;DHT22;6548;49.996;8.238;2022-08-21T09:44:29;29.80;99.90
12967;DHT22;6548;49.996;8.238;2022-08-21T09:46:56;30.50;99.90
12967;DHT22;6548;49.996;8.238;2022-08-21T09:49:37;30.40;99.90
12967;DHT22;6548;49.996;8.238;2022-08-21T09:52:15;30.80;99.90
12967;DHT22;6548;49.996;8.238;2022-08-21T09:54:41;29.10;99.90
12967;DHT22;6548;49.996;8.238;2022-08-21T09:59:55;30.10;99.90
12967;DHT22;6548;49.996;8.238;2022-08-21T10:02:32;31.30;99.90
12967;DHT22;6548;49.996;8.238;2022-08-21T10:05:06;30.90;99.90
12967;DHT22;6548;49.996;8.238;2022-08-21T10:07:35;30.40;99.90
12967;DHT22;6548;49.996;8.238;2022-08-21T10:10:23;29.70;99.90
12967;DHT22;6548;49.996;8.238;2022-08-21T10:13:14;30.60;99.90
12967;DHT22;6548;49.996;8.238;2022-08-21T10:18:41;30.70;99.90
12967;DHT22;6548;49.996;8.238;2022-08-21T10:21:10;31.00;99.90
12967;DHT22;6548;49.996;8.238;2022-08-21T10:26:39;30.20;99.90
12967;DHT22;6548;49.996;8.238;2022-08-21T10:29:30;30.50;99.90
12967;DHT22;6548;49.996;8.238;2022-08-21T10:35:14;30.20;99.90
12967;DHT22;6548;49.996;8.238;2022-08-21T10:40:58;30.50;99.90
12967;DHT22;6548;49.996;8.238;2022-08-21T10:43:52;28.40;99.90
12967;DHT22;6548;49.996;8.238;2022-08-21T10:46:36;28.70;99.90
12967;DHT22;6548;49.996;8.238;2022-08-21T10:51:53;30.90;99.90
12967;DHT22;6548;49.996;8.238;2022-08-21T10:54:41;31.50;99.90
12967;DHT22;6548;49.996;8.238;2022-08-21T10:57:34;31.80;99.80
12967;DHT22;6548;49.996;8.238;2022-08-21T11:00:10;32.60;98.40
12967;DHT22;6548;49.996;8.238;2022-08-21T11:02:42;32.80;97.40
12967;DHT22;6548;49.996;8.238;2022-08-21T11:07:48;33.00;96.10
12967;DHT22;6548;49.996;8.238;2022-08-21T11:10:50;32.00;96.00
12967;DHT22;6548;49.996;8.238;2022-08-21T11:13:49;31.80;96.60
12967;DHT22;6548;49.996;8.238;2022-08-21T11:16:42;31.90;96.30
12967;DHT22;6548;49.996;8.238;2022-08-21T11:22:11;32.30;96.00
12967;DHT22;6548;49.996;8.238;2022-08-21T11:24:50;32.30;95.10
12967;DHT22;6548;49.996;8.238;2022-08-21T11:27:24;31.70;95.00
12967;DHT22;6548;49.996;8.238;2022-08-21T11:29:59;31.60;95.80
12967;DHT22;6548;49.996;8.238;2022-08-21T11:32:37;32.30;95.10
12967;DHT22;6548;49.996;8.238;2022-08-21T11:43:28;32.20;94.00
12967;DHT22;6548;49.996;8.238;2022-08-21T11:46:20;31.20;94.70
12967;DHT22;6548;49.996;8.238;2022-08-21T12:00:20;31.90;94.40
12967;DHT22;6548;49.996;8.238;2022-08-21T12:02:51;31.90;93.80
12967;DHT22;6548;49.996;8.238;2022-08-21T12:05:23;31.20;93.60
12967;DHT22;6548;49.996;8.238;2022-08-21T12:08:04;31.90;94.60
12967;DHT22;6548;49.996;8.238;2022-08-21T12:10:36;32.20;93.70
12967;DHT22;6548;49.996;8.238;2022-08-21T12:13:09;31.10;94.30
12967;DHT22;6548;49.996;8.238;2022-08-21T12:15:36;29.40;95.70
12967;DHT22;6548;49.996;8.238;2022-08-21T12:18:29;31.50;94.90
12967;DHT22;6548;49.996;8.238;2022-08-21T12:21:16;32.90;93.20
12967;DHT22;6548;49.996;8.238;2022-08-21T12:24:03;32.50;92.50
12967;DHT22;6548;49.996;8.238;2022-08-21T12:26:38;32.70;92.30
12967;DHT22;6548;49.996;8.238;2022-08-21T12:29:16;33.60;92.70
12967;DHT22;6548;49.996;8.238;2022-08-21T12:32:00;34.10;90.80
12967;DHT22;6548;49.996;8.238;2022-08-21T12:34:34;33.20;90.50
12967;DHT22;6548;49.996;8.238;2022-08-21T12:37:11;34.10;90.40
12967;DHT22;6548;49.996;8.238;2022-08-21T12:39:44;35.70;90.00
12967;DHT22;6548;49.996;8.238;2022-08-21T12:42:19;36.20;85.00
12967;DHT22;6548;49.996;8.238;2022-08-21T12:45:19;36.00;86.70
12967;DHT22;6548;49.996;8.238;2022-08-21T12:48:22;35.10;84.80
12967;DHT22;6548;49.996;8.238;2022-08-21T12:51:11;34.60;85.20
12967;DHT22;6548;49.996;8.238;2022-08-21T12:53:53;35.90;83.00
12967;DHT22;6548;49.996;8.238;2022-08-21T12:56:22;35.50;82.50
12967;DHT22;6548;49.996;8.238;2022-08-21T12:58:50;34.00;83.90
12967;DHT22;6548;49.996;8.238;2022-08-21T13:01:27;33.20;85.60
12967;DHT22;6548;49.996;8.238;2022-08-21T13:03:54;33.60;85.90
12967;DHT22;6548;49.996;8.238;2022-08-21T13:06:22;34.00;85.20
12967;DHT22;6548;49.996;8.238;2022-08-21T13:08:54;34.40;83.60
12967;DHT22;6548;49.996;8.238;2022-08-21T13:11:22;33.90;83.60
12967;DHT22;6548;49.996;8.238;2022-08-21T13:13:50;33.70;84.80
12967;DHT22;6548;49.996;8.238;2022-08-21T13:16:24;33.80;83.20
12967;DHT22;6548;49.996;8.238;2022-08-21T13:18:57;32.40;84.80
12967;DHT22;6548;49.996;8.238;2022-08-21T13:21:31;32.10;85.90
12967;DHT22;6548;49.996;8.238;2022-08-21T13:26:41;33.30;84.60
12967;DHT22;6548;49.996;8.238;2022-08-21T13:29:09;34.20;84.00
12967;DHT22;6548;49.996;8.238;2022-08-21T13:31:37;34.70;83.50
12967;DHT22;6548;49.996;8.238;2022-08-21T13:34:05;35.20;82.20
12967;DHT22;6548;49.996;8.238;2022-08-21T13:36:35;35.00;81.00
12967;DHT22;6548;49.996;8.238;2022-08-21T13:39:03;35.00;80.70
12967;DHT22;6548;49.996;8.238;2022-08-21T13:41:33;36.30;80.30
12967;DHT22;6548;49.996;8.238;2022-08-21T13:44:02;33.70;80.40
12967;DHT22;6548;49.996;8.238;2022-08-21T13:46:34;34.60;81.20
12967;DHT22;6548;49.996;8.238;2022-08-21T13:49:02;35.10;80.20
12967;DHT22;6548;49.996;8.238;2022-08-21T13:51:29;36.00;78.10
12967;DHT22;6548;49.996;8.238;2022-08-21T13:53:55;34.70;79.20
12967;DHT22;6548;49.996;8.238;2022-08-21T13:56:30;36.40;78.70
12967;DHT22;6548;49.996;8.238;2022-08-21T13:58:57;36.10;77.40
12967;DHT22;6548;49.996;8.238;2022-08-21T14:01:53;37.40;75.20
12967;DHT22;6548;49.996;8.238;2022-08-21T14:04:26;37.10;74.20
12967;DHT22;6548;49.996;8.238;2022-08-21T14:06:53;36.90;74.00
12967;DHT22;6548;49.996;8.238;2022-08-21T14:09:34;36.00;73.10
12967;DHT22;6548;49.996;8.238;2022-08-21T14:12:16;34.90;75.70
12967;DHT22;6548;49.996;8.238;2022-08-21T14:14:42;34.90;74.70
12967;DHT22;6548;49.996;8.238;2022-08-21T14:17:29;34.50;75.90
12967;DHT22;6548;49.996;8.238;2022-08-21T14:19:56;34.40;76.60
12967;DHT22;6548;49.996;8.238;2022-08-21T14:27:29;34.50;75.20
12967;DHT22;6548;49.996;8.238;2022-08-21T14:29:59;34.70;74.70
12967;DHT22;6548;49.996;8.238;2022-08-21T14:32:26;35.90;74.20
12967;DHT22;6548;49.996;8.238;2022-08-21T14:34:53;36.00;73.70
12967;DHT22;6548;49.996;8.238;2022-08-21T14:37:19;36.40;72.70
12967;DHT22;6548;49.996;8.238;2022-08-21T14:39:44;35.40;71.80
12967;DHT22;6548;49.996;8.238;2022-08-21T14:42:11;32.50;75.80
12967;DHT22;6548;49.996;8.238;2022-08-21T14:44:37;33.00;75.70
12967;DHT22;6548;49.996;8.238;2022-08-21T14:47:02;32.20;76.70
12967;DHT22;6548;49.996;8.238;2022-08-21T14:49:29;32.30;77.10
12967;DHT22;6548;49.996;8.238;2022-08-21T14:51:56;34.20;76.00
12967;DHT22;6548;49.996;8.238;2022-08-21T14:54:24;34.50;74.30
12967;DHT22;6548;49.996;8.238;2022-08-21T14:56:50;34.10;74.20
12967;DHT22;6548;49.996;8.238;2022-08-21T14:59:16;34.40;72.80
12967;DHT22;6548;49.996;8.238;2022-08-21T15:01:42;34.30;73.00
12967;DHT22;6548;49.996;8.238;2022-08-21T15:04:07;34.10;73.00
12967;DHT22;6548;49.996;8.238;2022-08-21T15:06:33;33.30;73.70
12967;DHT22;6548;49.996;8.238;2022-08-21T15:08:58;32.40;74.60
12967;DHT22;6548;49.996;8.238;2022-08-21T15:11:24;32.20;75.30
12967;DHT22;6548;49.996;8.238;2022-08-21T15:13:55;31.80;76.10
12967;DHT22;6548;49.996;8.238;2022-08-21T15:16:21;31.40;76.50
12967;DHT22;6548;49.996;8.238;2022-08-21T15:18:47;30.90;77.30
12967;DHT22;6548;49.996;8.238;2022-08-21T15:21:13;30.60;78.40
12967;DHT22;6548;49.996;8.238;2022-08-21T15:23:38;31.20;78.30
12967;DHT22;6548;49.996;8.238;2022-08-21T15:26:04;32.30;77.60
12967;DHT22;6548;49.996;8.238;2022-08-21T15:28:30;33.30;75.00
12967;DHT22;6548;49.996;8.238;2022-08-21T15:30:56;34.10;74.40
12967;DHT22;6548;49.996;8.238;2022-08-21T15:33:22;34.00;73.90
12967;DHT22;6548;49.996;8.238;2022-08-21T15:35:47;34.00;73.30
12967;DHT22;6548;49.996;8.238;2022-08-21T15:38:14;34.30;72.40
12967;DHT22;6548;49.996;8.238;2022-08-21T15:40:41;33.90;72.40
12967;DHT22;6548;49.996;8.238;2022-08-21T15:43:15;34.20;72.50
12967;DHT22;6548;49.996;8.238;2022-08-21T15:45:43;33.80;71.50
12967;DHT22;6548;49.996;8.238;2022-08-21T15:48:08;32.80;73.20
12967;DHT22;6548;49.996;8.238;2022-08-21T15:50:34;32.80;74.10
12967;DHT22;6548;49.996;8.238;2022-08-21T15:52:59;32.10;75.00
12967;DHT22;6548;49.996;8.238;2022-08-21T15:55:25;32.20;75.40
12967;DHT22;6548;49.996;8.238;2022-08-21T15:57:52;31.70;75.60
12967;DHT22;6548;49.996;8.238;2022-08-21T16:00:23;30.50;77.20
12967;DHT22;6548;49.996;8.238;2022-08-21T16:02:51;30.20;78.70
12967;DHT22;6548;49.996;8.238;2022-08-21T16:05:25;30.70;77.70
12967;DHT22;6548;49.996;8.238;2022-08-21T16:07:53;30.60;78.50
12967;DHT22;6548;49.996;8.238;2022-08-21T16:10:22;30.80;78.80
12967;DHT22;6548;49.996;8.238;2022-08-21T16:12:56;31.10;77.70
12967;DHT22;6548;49.996;8.238;2022-08-21T16:15:23;31.40;76.40
12967;DHT22;6548;49.996;8.238;2022-08-21T16:17:50;31.30;75.90
12967;DHT22;6548;49.996;8.238;2022-08-21T16:20:23;30.90;76.90
12967;DHT22;6548;49.996;8.238;2022-08-21T16:22:50;31.20;77.60
12967;DHT22;6548;49.996;8.238;2022-08-21T16:25:16;31.00;77.30
12967;DHT22;6548;49.996;8.238;2022-08-21T16:27:43;31.10;77.80
12967;DHT22;6548;49.996;8.238;2022-08-21T16:30:10;31.20;78.20
12967;DHT22;6548;49.996;8.238;2022-08-21T16:32:36;31.10;78.20
12967;DHT22;6548;49.996;8.238;2022-08-21T16:35:02;31.00;77.60
12967;DHT22;6548;49.996;8.238;2022-08-21T16:37:28;31.00;77.10
12967;DHT22;6548;49.996;8.238;2022-08-21T16:39:54;30.80;76.90
12967;DHT22;6548;49.996;8.238;2022-08-21T16:42:23;30.60;77.60
12967;DHT22;6548;49.996;8.238;2022-08-21T16:44:50;30.20;77.60
12967;DHT22;6548;49.996;8.238;2022-08-21T16:47:16;30.20;78.60
12967;DHT22;6548;49.996;8.238;2022-08-21T16:49:42;29.90;79.80
12967;DHT22;6548;49.996;8.238;2022-08-21T16:52:08;29.80;80.10
12967;DHT22;6548;49.996;8.238;2022-08-21T16:54:33;29.70;80.10
12967;DHT22;6548;49.996;8.238;2022-08-21T16:56:59;29.70;80.20
12967;DHT22;6548;49.996;8.238;2022-08-21T16:59:25;29.60;80.20
12967;DHT22;6548;49.996;8.238;2022-08-21T17:01:52;29.60;80.70
12967;DHT22;6548;49.996;8.238;2022-08-21T17:04:18;29.50;80.10
12967;DHT22;6548;49.996;8.238;2022-08-21T17:06:45;29.30;80.40
12967;DHT22;6548;49.996;8.238;2022-08-21T17:09:11;29.00;81.50
12967;DHT22;6548;49.996;8.238;2022-08-21T17:11:42;28.90;82.50
12967;DHT22;6548;49.996;8.238;2022-08-21T17:14:20;28.90;82.90
12967;DHT22;6548;49.996;8.238;2022-08-21T17:16:51;28.90;83.80
12967;DHT22;6548;49.996;8.238;2022-08-21T17:19:18;28.90;83.00
12967;DHT22;6548;49.996;8.238;2022-08-21T17:21:45;28.70;83.20
12967;DHT22;6548;49.996;8.238;2022-08-21T17:24:11;28.80;83.20
12967;DHT22;6548;49.996;8.238;2022-08-21T17:26:43;28.70;82.70
12967;DHT22;6548;49.996;8.238;2022-08-21T17:29:09;28.50;82.70
12967;DHT22;6548;49.996;8.238;2022-08-21T17:31:39;28.40;83.20
12967;DHT22;6548;49.996;8.238;2022-08-21T17:34:05;28.30;84.00
12967;DHT22;6548;49.996;8.238;2022-08-21T17:36:31;28.10;83.30
12967;DHT22;6548;49.996;8.238;2022-08-21T17:38:57;27.80;83.40
12967;DHT22;6548;49.996;8.238;2022-08-21T17:41:24;27.50;83.20
12967;DHT22;6548;49.996;8.238;2022-08-21T17:43:50;27.20;83.30
12967;DHT22;6548;49.996;8.238;2022-08-21T17:46:23;27.00;83.70
12967;DHT22;6548;49.996;8.238;2022-08-21T17:48:51;26.80;84.60
12967;DHT22;6548;49.996;8.238;2022-08-21T17:51:16;26.70;84.40
12967;DHT22;6548;49.996;8.238;2022-08-21T17:53:42;26.60;84.30
12967;DHT22;6548;49.996;8.238;2022-08-21T17:56:09;26.50;85.00